sensor_id;sensor_type;location;lat;lon;timestamp;P1;durP1;ratioP1;P2;durP2;ratioP2
22248;SDS011;67538;52.180;5.646;2023-07-31T00:02:02;5.80;;;3.80;;
22248;SDS011;67538;52.180;5.646;2023-07-31T00:04:30;5.13;;;4.13;;
22248;SDS011;67538;52.180;5.646;2023-07-31T00:06:57;4.65;;;4.15;;
22248;SDS011;67538;52.180;5.646;2023-07-31T00:09:25;5.22;;;4.45;;
22248;SDS011;67538;52.180;5.646;2023-07-31T00:11:52;5.33;;;4.30;;
22248;SDS011;67538;52.180;5.646;2023-07-31T00:14:19;7.70;;;4.40;;
22248;SDS011;67538;52.180;5.646;2023-07-31T00:16:46;9.07;;;4.47;;
22248;SDS011;67538;52.180;5.646;2023-07-31T00:19:13;5.78;;;4.60;;
22248;SDS011;67538;52.180;5.646;2023-07-31T00:21:40;7.65;;;4.97;;
22248;SDS011;67538;52.180;5.646;2023-07-31T00:24:07;6.55;;;5.13;;
22248;SDS011;67538;52.180;5.646;2023-07-31T00:26:36;6.88;;;5.00;;
22248;SDS011;67538;52.180;5.646;2023-07-31T00:29:03;7.97;;;5.22;;
22248;SDS011;67538;52.180;5.646;2023-07-31T00:31:31;12.60;;;5.35;;
22248;SDS011;67538;52.180;5.646;2023-07-31T00:33:58;9.40;;;5.27;;
22248;SDS011;67538;52.180;5.646;2023-07-31T00:36:25;11.53;;;5.60;;
22248;SDS011;67538;52.180;5.646;2023-07-31T00:38:52;13.30;;;5.28;;
22248;SDS011;67538;52.180;5.646;2023-07-31T00:41:19;9.82;;;5.15;;
22248;SDS011;67538;52.180;5.646;2023-07-31T00:43:47;7.90;;;4.97;;
22248;SDS011;67538;52.180;5.646;2023-07-31T00:46:14;8.18;;;5.25;;
22248;SDS011;67538;52.180;5.646;2023-07-31T00:48:41;9.30;;;5.00;;
22248;SDS011;67538;52.180;5.646;2023-07-31T00:51:09;9.32;;;5.07;;
22248;SDS011;67538;52.180;5.646;2023-07-31T00:53:36;10.05;;;5.95;;
22248;SDS011;67538;52.180;5.646;2023-07-31T00:56:04;9.88;;;6.25;;
22248;SDS011;67538;52.180;5.646;2023-07-31T00:58:32;11.73;;;7.28;;
22248;SDS011;67538;52.180;5.646;2023-07-31T01:01:00;21.63;;;9.07;;
22248;SDS011;67538;52.180;5.646;2023-07-31T01:03:27;22.10;;;10.15;;
22248;SDS011;67538;52.180;5.646;2023-07-31T01:05:56;29.85;;;11.77;;
22248;SDS011;67538;52.180;5.646;2023-07-31T01:08:32;31.08;;;11.82;;
22248;SDS011;67538;52.180;5.646;2023-07-31T01:11:07;37.72;;;13.18;;
22248;SDS011;67538;52.180;5.646;2023-07-31T01:13:40;41.72;;;13.55;;
22248;SDS011;67538;52.180;5.646;2023-07-31T01:16:10;40.67;;;14.00;;
22248;SDS011;67538;52.180;5.646;2023-07-31T01:18:37;45.97;;;14.60;;
22248;SDS011;67538;52.180;5.646;2023-07-31T01:21:07;49.40;;;14.57;;
22248;SDS011;67538;52.180;5.646;2023-07-31T01:23:50;46.23;;;13.73;;
22248;SDS011;67538;52.180;5.646;2023-07-31T01:26:38;40.00;;;12.97;;
22248;SDS011;67538;52.180;5.646;2023-07-31T01:29:07;36.67;;;12.57;;
22248;SDS011;67538;52.180;5.646;2023-07-31T01:31:39;30.20;;;11.38;;
22248;SDS011;67538;52.180;5.646;2023-07-31T01:34:08;33.60;;;12.00;;
22248;SDS011;67538;52.180;5.646;2023-07-31T01:36:37;31.95;;;11.27;;
22248;SDS011;67538;52.180;5.646;2023-07-31T01:39:04;25.35;;;9.73;;
22248;SDS011;67538;52.180;5.646;2023-07-31T01:41:32;27.08;;;9.43;;
22248;SDS011;67538;52.180;5.646;2023-07-31T01:44:00;24.55;;;8.82;;
22248;SDS011;67538;52.180;5.646;2023-07-31T01:46:27;28.48;;;9.23;;
22248;SDS011;67538;52.180;5.646;2023-07-31T01:48:54;31.58;;;9.63;;
22248;SDS011;67538;52.180;5.646;2023-07-31T01:51:21;29.30;;;9.40;;
22248;SDS011;67538;52.180;5.646;2023-07-31T01:53:48;20.73;;;7.72;;
22248;SDS011;67538;52.180;5.646;2023-07-31T01:56:15;15.80;;;6.40;;
22248;SDS011;67538;52.180;5.646;2023-07-31T01:58:42;18.80;;;6.82;;
22248;SDS011;67538;52.180;5.646;2023-07-31T02:01:10;17.42;;;5.85;;
22248;SDS011;67538;52.180;5.646;2023-07-31T02:03:37;12.63;;;5.00;;
22248;SDS011;67538;52.180;5.646;2023-07-31T02:06:04;12.97;;;5.57;;
22248;SDS011;67538;52.180;5.646;2023-07-31T02:08:31;13.05;;;5.50;;
22248;SDS011;67538;52.180;5.646;2023-07-31T02:10:59;11.55;;;5.03;;
22248;SDS011;67538;52.180;5.646;2023-07-31T02:13:26;12.73;;;5.60;;
22248;SDS011;67538;52.180;5.646;2023-07-31T02:15:53;16.63;;;6.00;;
22248;SDS011;67538;52.180;5.646;2023-07-31T02:18:22;18.27;;;6.35;;
22248;SDS011;67538;52.180;5.646;2023-07-31T02:20:49;27.77;;;8.65;;
22248;SDS011;67538;52.180;5.646;2023-07-31T02:23:17;40.25;;;11.07;;
22248;SDS011;67538;52.180;5.646;2023-07-31T02:25:44;47.37;;;11.63;;
22248;SDS011;67538;52.180;5.646;2023-07-31T02:28:11;43.42;;;12.65;;
22248;SDS011;67538;52.180;5.646;2023-07-31T02:30:38;44.13;;;12.45;;
22248;SDS011;67538;52.180;5.646;2023-07-31T02:33:05;45.65;;;12.27;;
22248;SDS011;67538;52.180;5.646;2023-07-31T02:35:34;46.42;;;12.60;;
22248;SDS011;67538;52.180;5.646;2023-07-31T02:38:01;37.63;;;11.13;;
22248;SDS011;67538;52.180;5.646;2023-07-31T02:40:28;39.10;;;11.57;;
22248;SDS011;67538;52.180;5.646;2023-07-31T02:42:55;39.63;;;12.02;;
22248;SDS011;67538;52.180;5.646;2023-07-31T02:45:22;46.35;;;12.38;;
22248;SDS011;67538;52.180;5.646;2023-07-31T02:47:49;42.88;;;12.55;;
22248;SDS011;67538;52.180;5.646;2023-07-31T02:50:16;50.72;;;13.60;;
22248;SDS011;67538;52.180;5.646;2023-07-31T02:52:44;34.63;;;12.15;;
22248;SDS011;67538;52.180;5.646;2023-07-31T02:55:11;47.70;;;12.07;;
22248;SDS011;67538;52.180;5.646;2023-07-31T02:57:38;40.43;;;12.03;;
22248;SDS011;67538;52.180;5.646;2023-07-31T03:00:06;44.50;;;12.40;;
22248;SDS011;67538;52.180;5.646;2023-07-31T03:02:34;46.75;;;12.02;;
22248;SDS011;67538;52.180;5.646;2023-07-31T03:05:01;41.13;;;11.20;;
22248;SDS011;67538;52.180;5.646;2023-07-31T03:07:28;40.22;;;11.48;;
22248;SDS011;67538;52.180;5.646;2023-07-31T03:09:57;40.15;;;11.73;;
22248;SDS011;67538;52.180;5.646;2023-07-31T03:12:24;38.70;;;11.80;;
22248;SDS011;67538;52.180;5.646;2023-07-31T03:14:51;43.80;;;12.25;;
22248;SDS011;67538;52.180;5.646;2023-07-31T03:17:18;42.40;;;12.15;;
22248;SDS011;67538;52.180;5.646;2023-07-31T03:19:45;45.13;;;12.15;;
22248;SDS011;67538;52.180;5.646;2023-07-31T03:22:13;43.67;;;12.52;;
22248;SDS011;67538;52.180;5.646;2023-07-31T03:24:39;41.88;;;12.80;;
22248;SDS011;67538;52.180;5.646;2023-07-31T03:27:08;48.10;;;13.27;;
22248;SDS011;67538;52.180;5.646;2023-07-31T03:29:35;50.37;;;12.60;;
22248;SDS011;67538;52.180;5.646;2023-07-31T03:32:02;48.03;;;13.37;;
22248;SDS011;67538;52.180;5.646;2023-07-31T03:34:29;40.22;;;12.10;;
22248;SDS011;67538;52.180;5.646;2023-07-31T03:36:57;43.20;;;12.70;;
22248;SDS011;67538;52.180;5.646;2023-07-31T03:39:24;46.97;;;12.60;;
22248;SDS011;67538;52.180;5.646;2023-07-31T03:41:51;45.53;;;12.40;;
22248;SDS011;67538;52.180;5.646;2023-07-31T03:44:19;50.63;;;13.27;;
22248;SDS011;67538;52.180;5.646;2023-07-31T03:46:46;45.65;;;13.35;;
22248;SDS011;67538;52.180;5.646;2023-07-31T03:49:13;47.45;;;12.68;;
22248;SDS011;67538;52.180;5.646;2023-07-31T03:51:40;44.70;;;12.70;;
22248;SDS011;67538;52.180;5.646;2023-07-31T03:54:08;41.93;;;12.97;;
22248;SDS011;67538;52.180;5.646;2023-07-31T03:56:35;44.38;;;13.00;;
22248;SDS011;67538;52.180;5.646;2023-07-31T03:59:03;46.83;;;12.77;;
22248;SDS011;67538;52.180;5.646;2023-07-31T04:01:31;43.72;;;12.52;;
22248;SDS011;67538;52.180;5.646;2023-07-31T04:03:58;46.65;;;12.93;;
22248;SDS011;67538;52.180;5.646;2023-07-31T04:06:27;47.67;;;13.27;;
22248;SDS011;67538;52.180;5.646;2023-07-31T04:08:54;43.90;;;12.18;;
22248;SDS011;67538;52.180;5.646;2023-07-31T04:11:21;41.90;;;12.23;;
22248;SDS011;67538;52.180;5.646;2023-07-31T04:13:48;44.33;;;12.40;;
22248;SDS011;67538;52.180;5.646;2023-07-31T04:16:15;44.63;;;12.45;;
22248;SDS011;67538;52.180;5.646;2023-07-31T04:18:44;43.53;;;12.30;;
22248;SDS011;67538;52.180;5.646;2023-07-31T04:21:11;40.55;;;11.93;;
22248;SDS011;67538;52.180;5.646;2023-07-31T04:23:38;42.90;;;12.07;;
22248;SDS011;67538;52.180;5.646;2023-07-31T04:26:05;38.65;;;11.55;;
22248;SDS011;67538;52.180;5.646;2023-07-31T04:28:32;37.80;;;11.80;;
22248;SDS011;67538;52.180;5.646;2023-07-31T04:30:59;41.67;;;12.07;;
22248;SDS011;67538;52.180;5.646;2023-07-31T04:33:26;45.15;;;11.77;;
22248;SDS011;67538;52.180;5.646;2023-07-31T04:35:54;38.88;;;12.07;;
22248;SDS011;67538;52.180;5.646;2023-07-31T04:38:21;38.72;;;12.23;;
22248;SDS011;67538;52.180;5.646;2023-07-31T04:40:49;37.27;;;11.20;;
22248;SDS011;67538;52.180;5.646;2023-07-31T04:43:16;40.47;;;11.75;;
22248;SDS011;67538;52.180;5.646;2023-07-31T04:45:45;43.38;;;11.90;;
22248;SDS011;67538;52.180;5.646;2023-07-31T04:48:13;38.70;;;11.98;;
22248;SDS011;67538;52.180;5.646;2023-07-31T04:50:40;42.97;;;12.52;;
22248;SDS011;67538;52.180;5.646;2023-07-31T04:53:08;39.75;;;11.65;;
22248;SDS011;67538;52.180;5.646;2023-07-31T04:55:35;40.05;;;11.52;;
22248;SDS011;67538;52.180;5.646;2023-07-31T04:58:02;39.08;;;11.68;;
22248;SDS011;67538;52.180;5.646;2023-07-31T05:00:30;37.17;;;11.82;;
22248;SDS011;67538;52.180;5.646;2023-07-31T05:02:57;34.47;;;11.63;;
22248;SDS011;67538;52.180;5.646;2023-07-31T05:05:24;41.40;;;11.93;;
22248;SDS011;67538;52.180;5.646;2023-07-31T05:07:51;38.38;;;11.85;;
22248;SDS011;67538;52.180;5.646;2023-07-31T05:10:19;40.30;;;12.10;;
22248;SDS011;67538;52.180;5.646;2023-07-31T05:12:46;40.25;;;12.10;;
22248;SDS011;67538;52.180;5.646;2023-07-31T05:15:13;38.72;;;13.20;;
22248;SDS011;67538;52.180;5.646;2023-07-31T05:17:40;42.80;;;13.60;;
22248;SDS011;67538;52.180;5.646;2023-07-31T05:20:08;43.33;;;13.00;;
22248;SDS011;67538;52.180;5.646;2023-07-31T05:22:35;48.15;;;14.13;;
22248;SDS011;67538;52.180;5.646;2023-07-31T05:25:02;45.67;;;13.43;;
22248;SDS011;67538;52.180;5.646;2023-07-31T05:27:31;46.65;;;14.00;;
22248;SDS011;67538;52.180;5.646;2023-07-31T05:29:59;34.55;;;13.15;;
22248;SDS011;67538;52.180;5.646;2023-07-31T05:32:26;41.85;;;13.70;;
22248;SDS011;67538;52.180;5.646;2023-07-31T05:34:53;41.75;;;13.15;;
22248;SDS011;67538;52.180;5.646;2023-07-31T05:37:20;40.17;;;13.30;;
22248;SDS011;67538;52.180;5.646;2023-07-31T05:39:47;39.35;;;12.52;;
22248;SDS011;67538;52.180;5.646;2023-07-31T05:42:15;36.25;;;12.10;;
22248;SDS011;67538;52.180;5.646;2023-07-31T05:44:43;32.50;;;12.27;;
22248;SDS011;67538;52.180;5.646;2023-07-31T05:47:10;36.60;;;12.48;;
22248;SDS011;67538;52.180;5.646;2023-07-31T05:49:37;34.22;;;11.10;;
22248;SDS011;67538;52.180;5.646;2023-07-31T05:52:04;34.88;;;10.50;;
22248;SDS011;67538;52.180;5.646;2023-07-31T05:54:32;28.77;;;9.80;;
22248;SDS011;67538;52.180;5.646;2023-07-31T05:56:59;26.27;;;9.27;;
22248;SDS011;67538;52.180;5.646;2023-07-31T05:59:26;26.00;;;9.05;;
22248;SDS011;67538;52.180;5.646;2023-07-31T06:01:55;21.13;;;8.32;;
22248;SDS011;67538;52.180;5.646;2023-07-31T06:04:22;21.40;;;9.32;;
22248;SDS011;67538;52.180;5.646;2023-07-31T06:06:50;20.27;;;8.82;;
22248;SDS011;67538;52.180;5.646;2023-07-31T06:09:17;22.90;;;9.53;;
22248;SDS011;67538;52.180;5.646;2023-07-31T06:11:45;19.95;;;9.35;;
22248;SDS011;67538;52.180;5.646;2023-07-31T06:14:12;20.50;;;9.30;;
22248;SDS011;67538;52.180;5.646;2023-07-31T06:16:39;21.80;;;9.90;;
22248;SDS011;67538;52.180;5.646;2023-07-31T06:19:08;19.25;;;10.10;;
22248;SDS011;67538;52.180;5.646;2023-07-31T06:21:35;23.35;;;10.07;;
22248;SDS011;67538;52.180;5.646;2023-07-31T06:24:03;21.45;;;10.07;;
22248;SDS011;67538;52.180;5.646;2023-07-31T06:26:30;19.52;;;10.23;;
22248;SDS011;67538;52.180;5.646;2023-07-31T06:28:58;21.50;;;10.65;;
22248;SDS011;67538;52.180;5.646;2023-07-31T06:31:25;24.13;;;10.25;;
22248;SDS011;67538;52.180;5.646;2023-07-31T06:33:52;24.02;;;10.45;;
22248;SDS011;67538;52.180;5.646;2023-07-31T06:36:20;22.75;;;10.48;;
22248;SDS011;67538;52.180;5.646;2023-07-31T06:38:48;22.60;;;10.68;;
22248;SDS011;67538;52.180;5.646;2023-07-31T06:41:15;22.48;;;10.55;;
22248;SDS011;67538;52.180;5.646;2023-07-31T06:43:42;23.10;;;10.90;;
22248;SDS011;67538;52.180;5.646;2023-07-31T06:46:09;21.70;;;10.38;;
22248;SDS011;67538;52.180;5.646;2023-07-31T06:48:36;23.13;;;10.20;;
22248;SDS011;67538;52.180;5.646;2023-07-31T06:51:03;23.53;;;10.10;;
22248;SDS011;67538;52.180;5.646;2023-07-31T06:53:31;26.60;;;9.60;;
22248;SDS011;67538;52.180;5.646;2023-07-31T06:55:58;21.73;;;9.60;;
22248;SDS011;67538;52.180;5.646;2023-07-31T06:58:25;21.88;;;9.02;;
22248;SDS011;67538;52.180;5.646;2023-07-31T07:00:52;23.80;;;8.90;;
22248;SDS011;67538;52.180;5.646;2023-07-31T07:03:19;18.60;;;8.75;;
22248;SDS011;67538;52.180;5.646;2023-07-31T07:05:46;21.67;;;7.97;;
22248;SDS011;67538;52.180;5.646;2023-07-31T07:08:14;19.27;;;8.43;;
22248;SDS011;67538;52.180;5.646;2023-07-31T07:10:43;16.27;;;8.10;;
22248;SDS011;67538;52.180;5.646;2023-07-31T07:13:10;15.18;;;7.90;;
22248;SDS011;67538;52.180;5.646;2023-07-31T07:15:38;17.80;;;8.23;;
22248;SDS011;67538;52.180;5.646;2023-07-31T07:18:05;16.45;;;7.57;;
22248;SDS011;67538;52.180;5.646;2023-07-31T07:20:32;14.35;;;7.88;;
22248;SDS011;67538;52.180;5.646;2023-07-31T07:22:59;14.63;;;7.75;;
22248;SDS011;67538;52.180;5.646;2023-07-31T07:25:26;13.55;;;7.55;;
22248;SDS011;67538;52.180;5.646;2023-07-31T07:27:55;13.73;;;7.57;;
22248;SDS011;67538;52.180;5.646;2023-07-31T07:30:22;14.02;;;7.60;;
22248;SDS011;67538;52.180;5.646;2023-07-31T07:32:50;13.98;;;7.40;;
22248;SDS011;67538;52.180;5.646;2023-07-31T07:35:17;12.60;;;7.82;;
22248;SDS011;67538;52.180;5.646;2023-07-31T07:37:44;16.08;;;7.45;;
22248;SDS011;67538;52.180;5.646;2023-07-31T07:40:11;12.27;;;7.35;;
22248;SDS011;67538;52.180;5.646;2023-07-31T07:42:38;14.35;;;7.30;;
22248;SDS011;67538;52.180;5.646;2023-07-31T07:45:07;14.63;;;7.40;;
22248;SDS011;67538;52.180;5.646;2023-07-31T07:47:35;12.73;;;8.05;;
22248;SDS011;67538;52.180;5.646;2023-07-31T07:50:02;12.90;;;8.03;;
22248;SDS011;67538;52.180;5.646;2023-07-31T07:52:29;14.68;;;8.10;;
22248;SDS011;67538;52.180;5.646;2023-07-31T07:54:56;15.05;;;8.40;;
22248;SDS011;67538;52.180;5.646;2023-07-31T07:57:23;13.00;;;8.05;;
22248;SDS011;67538;52.180;5.646;2023-07-31T07:59:50;15.00;;;8.40;;
22248;SDS011;67538;52.180;5.646;2023-07-31T08:02:19;14.68;;;8.20;;
22248;SDS011;67538;52.180;5.646;2023-07-31T08:04:46;14.07;;;7.83;;
22248;SDS011;67538;52.180;5.646;2023-07-31T08:07:13;13.93;;;8.27;;
22248;SDS011;67538;52.180;5.646;2023-07-31T08:09:41;14.25;;;8.20;;
22248;SDS011;67538;52.180;5.646;2023-07-31T08:12:08;12.52;;;8.13;;
22248;SDS011;67538;52.180;5.646;2023-07-31T08:14:35;13.03;;;8.43;;
22248;SDS011;67538;52.180;5.646;2023-07-31T08:17:02;11.75;;;7.63;;
22248;SDS011;67538;52.180;5.646;2023-07-31T08:19:31;11.35;;;7.78;;
22248;SDS011;67538;52.180;5.646;2023-07-31T08:21:58;10.50;;;7.50;;
22248;SDS011;67538;52.180;5.646;2023-07-31T08:24:25;12.98;;;7.97;;
22248;SDS011;67538;52.180;5.646;2023-07-31T08:26:52;11.75;;;7.72;;
22248;SDS011;67538;52.180;5.646;2023-07-31T08:29:19;10.73;;;7.72;;
22248;SDS011;67538;52.180;5.646;2023-07-31T08:31:46;12.80;;;7.80;;
22248;SDS011;67538;52.180;5.646;2023-07-31T08:34:13;13.43;;;8.00;;
22248;SDS011;67538;52.180;5.646;2023-07-31T08:36:41;12.52;;;7.88;;
22248;SDS011;67538;52.180;5.646;2023-07-31T08:39:08;11.23;;;7.70;;
22248;SDS011;67538;52.180;5.646;2023-07-31T08:41:37;10.65;;;7.60;;
22248;SDS011;67538;52.180;5.646;2023-07-31T08:44:04;15.10;;;8.20;;
22248;SDS011;67538;52.180;5.646;2023-07-31T08:46:31;10.98;;;7.50;;
22248;SDS011;67538;52.180;5.646;2023-07-31T08:49:00;10.38;;;8.00;;
22248;SDS011;67538;52.180;5.646;2023-07-31T08:51:30;11.15;;;8.18;;
22248;SDS011;67538;52.180;5.646;2023-07-31T08:53:58;9.90;;;7.82;;
22248;SDS011;67538;52.180;5.646;2023-07-31T08:56:25;10.43;;;7.60;;
22248;SDS011;67538;52.180;5.646;2023-07-31T08:58:53;10.27;;;6.80;;
22248;SDS011;67538;52.180;5.646;2023-07-31T09:01:21;10.18;;;6.45;;
22248;SDS011;67538;52.180;5.646;2023-07-31T09:03:49;8.50;;;6.13;;
22248;SDS011;67538;52.180;5.646;2023-07-31T09:06:18;8.30;;;6.15;;
22248;SDS011;67538;52.180;5.646;2023-07-31T09:08:47;8.48;;;6.07;;
22248;SDS011;67538;52.180;5.646;2023-07-31T09:11:18;9.27;;;6.05;;
22248;SDS011;67538;52.180;5.646;2023-07-31T09:13:47;7.37;;;6.20;;
22248;SDS011;67538;52.180;5.646;2023-07-31T09:16:16;10.70;;;6.47;;
22248;SDS011;67538;52.180;5.646;2023-07-31T09:21:28;8.90;;;7.13;;
22248;SDS011;67538;52.180;5.646;2023-07-31T09:23:55;8.90;;;7.05;;
22248;SDS011;67538;52.180;5.646;2023-07-31T09:26:32;9.85;;;7.32;;
22248;SDS011;67538;52.180;5.646;2023-07-31T09:29:01;8.48;;;7.55;;
22248;SDS011;67538;52.180;5.646;2023-07-31T09:31:38;9.60;;;7.50;;
22248;SDS011;67538;52.180;5.646;2023-07-31T09:34:06;8.20;;;7.25;;
22248;SDS011;67538;52.180;5.646;2023-07-31T09:36:39;7.95;;;7.00;;
22248;SDS011;67538;52.180;5.646;2023-07-31T09:39:08;8.10;;;7.15;;
22248;SDS011;67538;52.180;5.646;2023-07-31T09:41:37;7.72;;;6.93;;
22248;SDS011;67538;52.180;5.646;2023-07-31T09:44:05;9.40;;;7.47;;
22248;SDS011;67538;52.180;5.646;2023-07-31T09:46:34;10.77;;;7.30;;
22248;SDS011;67538;52.180;5.646;2023-07-31T09:49:05;9.98;;;7.38;;
22248;SDS011;67538;52.180;5.646;2023-07-31T09:51:34;10.75;;;7.35;;
22248;SDS011;67538;52.180;5.646;2023-07-31T09:54:04;8.68;;;7.70;;
22248;SDS011;67538;52.180;5.646;2023-07-31T09:56:41;13.43;;;7.55;;
22248;SDS011;67538;52.180;5.646;2023-07-31T09:59:10;9.85;;;7.90;;
22248;SDS011;67538;52.180;5.646;2023-07-31T10:01:40;9.57;;;8.02;;
22248;SDS011;67538;52.180;5.646;2023-07-31T10:04:08;13.10;;;8.82;;
22248;SDS011;67538;52.180;5.646;2023-07-31T10:06:36;12.00;;;8.50;;
22248;SDS011;67538;52.180;5.646;2023-07-31T10:09:05;12.80;;;8.25;;
22248;SDS011;67538;52.180;5.646;2023-07-31T10:11:34;10.10;;;7.85;;
22248;SDS011;67538;52.180;5.646;2023-07-31T10:14:10;11.23;;;7.85;;
22248;SDS011;67538;52.180;5.646;2023-07-31T10:16:38;9.55;;;7.13;;
22248;SDS011;67538;52.180;5.646;2023-07-31T10:19:06;8.65;;;6.80;;
22248;SDS011;67538;52.180;5.646;2023-07-31T10:21:34;9.30;;;6.30;;
22248;SDS011;67538;52.180;5.646;2023-07-31T10:24:03;9.10;;;6.90;;
22248;SDS011;67538;52.180;5.646;2023-07-31T10:26:31;8.50;;;6.07;;
22248;SDS011;67538;52.180;5.646;2023-07-31T10:28:59;9.70;;;6.82;;
22248;SDS011;67538;52.180;5.646;2023-07-31T10:31:28;13.10;;;8.75;;
22248;SDS011;67538;52.180;5.646;2023-07-31T10:33:55;11.55;;;7.90;;
22248;SDS011;67538;52.180;5.646;2023-07-31T10:36:24;12.73;;;8.75;;
22248;SDS011;67538;52.180;5.646;2023-07-31T10:38:52;12.87;;;8.53;;
22248;SDS011;67538;52.180;5.646;2023-07-31T10:41:27;13.32;;;8.77;;
22248;SDS011;67538;52.180;5.646;2023-07-31T10:43:57;12.95;;;9.18;;
22248;SDS011;67538;52.180;5.646;2023-07-31T10:46:25;14.95;;;9.10;;
22248;SDS011;67538;52.180;5.646;2023-07-31T10:49:02;14.93;;;9.48;;
22248;SDS011;67538;52.180;5.646;2023-07-31T10:51:32;12.50;;;9.20;;
22248;SDS011;67538;52.180;5.646;2023-07-31T10:54:10;14.85;;;9.40;;
22248;SDS011;67538;52.180;5.646;2023-07-31T10:56:38;15.52;;;9.80;;
22248;SDS011;67538;52.180;5.646;2023-07-31T10:59:05;13.20;;;9.25;;
22248;SDS011;67538;52.180;5.646;2023-07-31T11:01:53;13.40;;;9.95;;
22248;SDS011;67538;52.180;5.646;2023-07-31T11:04:22;14.45;;;9.73;;
22248;SDS011;67538;52.180;5.646;2023-07-31T11:06:56;17.10;;;9.95;;
22248;SDS011;67538;52.180;5.646;2023-07-31T11:09:24;13.55;;;9.93;;
22248;SDS011;67538;52.180;5.646;2023-07-31T11:11:54;12.88;;;9.65;;
22248;SDS011;67538;52.180;5.646;2023-07-31T11:14:22;13.18;;;9.32;;
22248;SDS011;67538;52.180;5.646;2023-07-31T11:16:49;14.45;;;9.02;;
22248;SDS011;67538;52.180;5.646;2023-07-31T11:19:22;13.40;;;9.00;;
22248;SDS011;67538;52.180;5.646;2023-07-31T11:21:50;10.68;;;7.78;;
22248;SDS011;67538;52.180;5.646;2023-07-31T11:24:18;14.57;;;8.40;;
22248;SDS011;67538;52.180;5.646;2023-07-31T11:26:49;9.32;;;7.63;;
22248;SDS011;67538;52.180;5.646;2023-07-31T11:29:17;12.82;;;7.60;;
22248;SDS011;67538;52.180;5.646;2023-07-31T11:31:44;11.68;;;8.13;;
22248;SDS011;67538;52.180;5.646;2023-07-31T11:34:12;11.23;;;7.60;;
22248;SDS011;67538;52.180;5.646;2023-07-31T11:36:42;11.07;;;6.65;;
22248;SDS011;67538;52.180;5.646;2023-07-31T11:39:19;9.05;;;6.55;;
22248;SDS011;67538;52.180;5.646;2023-07-31T11:41:47;10.55;;;6.82;;
22248;SDS011;67538;52.180;5.646;2023-07-31T11:44:14;7.30;;;6.10;;
22248;SDS011;67538;52.180;5.646;2023-07-31T11:46:41;8.57;;;7.32;;
22248;SDS011;67538;52.180;5.646;2023-07-31T11:49:09;9.77;;;7.10;;
22248;SDS011;67538;52.180;5.646;2023-07-31T11:51:36;8.70;;;6.43;;
22248;SDS011;67538;52.180;5.646;2023-07-31T11:54:04;8.77;;;6.43;;
22248;SDS011;67538;52.180;5.646;2023-07-31T11:56:32;10.35;;;6.78;;
22248;SDS011;67538;52.180;5.646;2023-07-31T11:58:59;9.07;;;6.17;;
22248;SDS011;67538;52.180;5.646;2023-07-31T12:01:28;8.43;;;6.27;;
22248;SDS011;67538;52.180;5.646;2023-07-31T12:03:56;8.30;;;6.18;;
22248;SDS011;67538;52.180;5.646;2023-07-31T12:06:32;8.20;;;6.50;;
22248;SDS011;67538;52.180;5.646;2023-07-31T12:09:00;9.98;;;7.20;;
22248;SDS011;67538;52.180;5.646;2023-07-31T12:11:30;9.48;;;7.22;;
22248;SDS011;67538;52.180;5.646;2023-07-31T12:13:57;11.82;;;7.22;;
22248;SDS011;67538;52.180;5.646;2023-07-31T12:16:25;10.85;;;7.50;;
22248;SDS011;67538;52.180;5.646;2023-07-31T12:18:53;9.25;;;7.30;;
22248;SDS011;67538;52.180;5.646;2023-07-31T12:21:21;11.93;;;8.80;;
22248;SDS011;67538;52.180;5.646;2023-07-31T12:23:48;13.18;;;9.18;;
22248;SDS011;67538;52.180;5.646;2023-07-31T12:26:15;11.50;;;9.20;;
22248;SDS011;67538;52.180;5.646;2023-07-31T12:28:44;12.23;;;9.07;;
22248;SDS011;67538;52.180;5.646;2023-07-31T12:31:13;13.27;;;9.05;;
22248;SDS011;67538;52.180;5.646;2023-07-31T12:33:42;13.13;;;8.60;;
22248;SDS011;67538;52.180;5.646;2023-07-31T12:36:10;12.00;;;8.57;;
22248;SDS011;67538;52.180;5.646;2023-07-31T12:38:38;8.82;;;7.75;;
22248;SDS011;67538;52.180;5.646;2023-07-31T12:41:05;9.07;;;7.47;;
22248;SDS011;67538;52.180;5.646;2023-07-31T12:43:33;8.87;;;6.93;;
22248;SDS011;67538;52.180;5.646;2023-07-31T12:46:01;8.90;;;6.57;;
22248;SDS011;67538;52.180;5.646;2023-07-31T12:48:28;6.47;;;5.75;;
22248;SDS011;67538;52.180;5.646;2023-07-31T12:50:56;6.22;;;5.47;;
22248;SDS011;67538;52.180;5.646;2023-07-31T12:53:23;7.28;;;5.60;;
22248;SDS011;67538;52.180;5.646;2023-07-31T12:55:50;5.50;;;5.00;;
22248;SDS011;67538;52.180;5.646;2023-07-31T12:58:17;6.50;;;5.22;;
22248;SDS011;67538;52.180;5.646;2023-07-31T13:00:44;7.45;;;5.65;;
22248;SDS011;67538;52.180;5.646;2023-07-31T13:03:13;6.25;;;5.65;;
22248;SDS011;67538;52.180;5.646;2023-07-31T13:05:40;7.03;;;6.10;;
22248;SDS011;67538;52.180;5.646;2023-07-31T13:08:07;8.32;;;6.60;;
22248;SDS011;67538;52.180;5.646;2023-07-31T13:10:34;8.70;;;6.50;;
22248;SDS011;67538;52.180;5.646;2023-07-31T13:13:01;8.52;;;6.93;;
22248;SDS011;67538;52.180;5.646;2023-07-31T13:15:28;10.88;;;6.95;;
22248;SDS011;67538;52.180;5.646;2023-07-31T13:17:55;8.10;;;7.00;;
22248;SDS011;67538;52.180;5.646;2023-07-31T13:20:24;7.88;;;6.40;;
22248;SDS011;67538;52.180;5.646;2023-07-31T13:22:51;8.52;;;6.72;;
22248;SDS011;67538;52.180;5.646;2023-07-31T13:25:18;10.50;;;7.50;;
22248;SDS011;67538;52.180;5.646;2023-07-31T13:27:45;10.38;;;7.85;;
22248;SDS011;67538;52.180;5.646;2023-07-31T13:30:12;10.23;;;8.23;;
22248;SDS011;67538;52.180;5.646;2023-07-31T13:32:39;11.82;;;8.52;;
22248;SDS011;67538;52.180;5.646;2023-07-31T13:35:06;9.90;;;8.57;;
22248;SDS011;67538;52.180;5.646;2023-07-31T13:37:37;12.75;;;9.85;;
22248;SDS011;67538;52.180;5.646;2023-07-31T13:40:05;14.00;;;9.70;;
22248;SDS011;67538;52.180;5.646;2023-07-31T13:42:32;13.80;;;9.65;;
22248;SDS011;67538;52.180;5.646;2023-07-31T13:45:00;14.18;;;9.93;;
22248;SDS011;67538;52.180;5.646;2023-07-31T13:47:26;11.48;;;9.38;;
22248;SDS011;67538;52.180;5.646;2023-07-31T13:49:53;13.73;;;10.10;;
22248;SDS011;67538;52.180;5.646;2023-07-31T13:52:20;13.25;;;10.23;;
22248;SDS011;67538;52.180;5.646;2023-07-31T13:54:49;14.48;;;10.52;;
22248;SDS011;67538;52.180;5.646;2023-07-31T13:57:16;12.02;;;10.43;;
22248;SDS011;67538;52.180;5.646;2023-07-31T13:59:43;13.23;;;10.55;;
22248;SDS011;67538;52.180;5.646;2023-07-31T14:02:10;14.55;;;10.98;;
22248;SDS011;67538;52.180;5.646;2023-07-31T14:04:38;14.95;;;11.55;;
22248;SDS011;67538;52.180;5.646;2023-07-31T14:07:05;16.25;;;11.48;;
22248;SDS011;67538;52.180;5.646;2023-07-31T14:09:33;16.33;;;11.70;;
22248;SDS011;67538;52.180;5.646;2023-07-31T14:12:01;16.92;;;11.20;;
22248;SDS011;67538;52.180;5.646;2023-07-31T14:14:29;16.42;;;12.10;;
22248;SDS011;67538;52.180;5.646;2023-07-31T14:16:59;16.45;;;12.68;;
22248;SDS011;67538;52.180;5.646;2023-07-31T14:19:26;21.58;;;13.82;;
22248;SDS011;67538;52.180;5.646;2023-07-31T14:21:53;19.58;;;13.27;;
22248;SDS011;67538;52.180;5.646;2023-07-31T14:24:20;19.02;;;13.63;;
22248;SDS011;67538;52.180;5.646;2023-07-31T14:26:47;16.65;;;13.05;;
22248;SDS011;67538;52.180;5.646;2023-07-31T14:29:15;17.05;;;13.00;;
22248;SDS011;67538;52.180;5.646;2023-07-31T14:31:42;20.67;;;14.35;;
22248;SDS011;67538;52.180;5.646;2023-07-31T14:34:09;23.23;;;15.25;;
22248;SDS011;67538;52.180;5.646;2023-07-31T14:36:36;23.13;;;16.00;;
22248;SDS011;67538;52.180;5.646;2023-07-31T14:39:03;23.27;;;16.75;;
22248;SDS011;67538;52.180;5.646;2023-07-31T14:41:30;23.17;;;17.38;;